Terminal Aerodrome Forecast
Issued by NWS

Home | Current Version | Previous Version | Text Only | Print | Product List | Glossary On
Versions: 1 2 3 4 5 6 7 8 9 10 11 12 13 14
000
FTUS41 KCAR 061120
TAFPQI
TAF
KPQI 061120Z 0612/0712 28011KT P6SM FEW250
     FM061600 29014G25KT P6SM SCT100
     FM062200 31009KT P6SM SCT080
      AMD LTD TO CLD VIS AND WIND=

USA.gov is the U.S. government's official web portal to all federal, state and local government web resources and services.